CPX781 Details

Departure: Taiwan Taoyuan International Airport (RCTP)
Arrival: Incheon International Airport (RKSI) at N/A
Route: PIANO1C PIANO L3 SALMI B576 SEL SEL1T
Notes:


Current Weather Information
RCTP 250400Z 03007KT 9999 FEW015 SCT060 BKN120 32/26 Q1006 NOSIG RMK A2973
RKSI 250400Z 29010KT 9999 FEW020 27/17 Q1013 NOSIG